sensor_id;sensor_type;location;lat;lon;timestamp;P1;durP1;ratioP1;P2;durP2;ratioP2
37973;SDS011;23796;51.458;7.000;2024-02-21T00:00:48;19.13;;;9.52;;
37973;SDS011;23796;51.458;7.000;2024-02-21T00:03:13;19.83;;;9.50;;
37973;SDS011;23796;51.458;7.000;2024-02-21T00:05:39;13.05;;;7.68;;
37973;SDS011;23796;51.458;7.000;2024-02-21T00:08:04;15.40;;;8.70;;
37973;SDS011;23796;51.458;7.000;2024-02-21T00:10:32;14.73;;;8.60;;
37973;SDS011;23796;51.458;7.000;2024-02-21T00:12:58;18.58;;;10.23;;
37973;SDS011;23796;51.458;7.000;2024-02-21T00:15:27;17.88;;;9.75;;
37973;SDS011;23796;51.458;7.000;2024-02-21T00:17:52;14.02;;;8.57;;
37973;SDS011;23796;51.458;7.000;2024-02-21T00:20:18;15.32;;;8.15;;
37973;SDS011;23796;51.458;7.000;2024-02-21T00:22:45;13.50;;;8.02;;
37973;SDS011;23796;51.458;7.000;2024-02-21T00:25:10;14.25;;;8.95;;
37973;SDS011;23796;51.458;7.000;2024-02-21T00:27:36;15.38;;;9.18;;
37973;SDS011;23796;51.458;7.000;2024-02-21T00:30:02;14.15;;;8.13;;
37973;SDS011;23796;51.458;7.000;2024-02-21T00:32:28;15.48;;;9.60;;
37973;SDS011;23796;51.458;7.000;2024-02-21T00:34:53;19.02;;;10.02;;
37973;SDS011;23796;51.458;7.000;2024-02-21T00:37:19;16.08;;;8.43;;
37973;SDS011;23796;51.458;7.000;2024-02-21T00:39:47;15.98;;;8.15;;
37973;SDS011;23796;51.458;7.000;2024-02-21T00:42:15;15.82;;;8.98;;
37973;SDS011;23796;51.458;7.000;2024-02-21T00:44:40;15.70;;;8.48;;
37973;SDS011;23796;51.458;7.000;2024-02-21T00:47:06;16.02;;;9.00;;
37973;SDS011;23796;51.458;7.000;2024-02-21T00:49:32;14.95;;;8.77;;
37973;SDS011;23796;51.458;7.000;2024-02-21T00:51:57;14.93;;;9.07;;
37973;SDS011;23796;51.458;7.000;2024-02-21T00:54:25;17.77;;;8.48;;
37973;SDS011;23796;51.458;7.000;2024-02-21T00:56:51;14.52;;;8.95;;
37973;SDS011;23796;51.458;7.000;2024-02-21T00:59:16;14.85;;;8.77;;
37973;SDS011;23796;51.458;7.000;2024-02-21T01:01:43;15.05;;;9.20;;
37973;SDS011;23796;51.458;7.000;2024-02-21T01:04:11;16.40;;;9.23;;
37973;SDS011;23796;51.458;7.000;2024-02-21T01:06:39;19.42;;;9.80;;
37973;SDS011;23796;51.458;7.000;2024-02-21T01:09:07;16.52;;;9.48;;
37973;SDS011;23796;51.458;7.000;2024-02-21T01:11:33;16.48;;;9.07;;
37973;SDS011;23796;51.458;7.000;2024-02-21T01:13:59;15.02;;;8.57;;
37973;SDS011;23796;51.458;7.000;2024-02-21T01:16:25;16.48;;;8.68;;
37973;SDS011;23796;51.458;7.000;2024-02-21T01:18:51;17.00;;;8.50;;
37973;SDS011;23796;51.458;7.000;2024-02-21T01:21:17;14.95;;;8.95;;
37973;SDS011;23796;51.458;7.000;2024-02-21T01:23:42;18.15;;;9.13;;
37973;SDS011;23796;51.458;7.000;2024-02-21T01:26:08;14.55;;;8.38;;
37973;SDS011;23796;51.458;7.000;2024-02-21T01:28:34;13.60;;;8.13;;
37973;SDS011;23796;51.458;7.000;2024-02-21T01:31:00;17.38;;;8.52;;
37973;SDS011;23796;51.458;7.000;2024-02-21T01:33:26;13.88;;;8.15;;
37973;SDS011;23796;51.458;7.000;2024-02-21T01:35:52;14.35;;;8.13;;
37973;SDS011;23796;51.458;7.000;2024-02-21T01:38:17;17.67;;;9.15;;
37973;SDS011;23796;51.458;7.000;2024-02-21T01:40:43;15.13;;;8.57;;
37973;SDS011;23796;51.458;7.000;2024-02-21T01:43:15;13.55;;;8.18;;
37973;SDS011;23796;51.458;7.000;2024-02-21T01:45:49;16.00;;;8.23;;
37973;SDS011;23796;51.458;7.000;2024-02-21T01:48:16;13.30;;;8.43;;
37973;SDS011;23796;51.458;7.000;2024-02-21T01:50:47;15.68;;;7.95;;
37973;SDS011;23796;51.458;7.000;2024-02-21T01:53:18;14.88;;;8.18;;
37973;SDS011;23796;51.458;7.000;2024-02-21T01:55:46;14.95;;;7.72;;
37973;SDS011;23796;51.458;7.000;2024-02-21T01:58:13;13.35;;;7.55;;
37973;SDS011;23796;51.458;7.000;2024-02-21T02:00:39;15.82;;;8.77;;
37973;SDS011;23796;51.458;7.000;2024-02-21T02:03:10;17.50;;;8.07;;
37973;SDS011;23796;51.458;7.000;2024-02-21T02:05:42;12.88;;;7.47;;
37973;SDS011;23796;51.458;7.000;2024-02-21T02:08:14;12.57;;;8.00;;
37973;SDS011;23796;51.458;7.000;2024-02-21T02:10:41;15.38;;;7.90;;
37973;SDS011;23796;51.458;7.000;2024-02-21T02:13:09;15.73;;;7.90;;
37973;SDS011;23796;51.458;7.000;2024-02-21T02:18:07;16.70;;;7.90;;
37973;SDS011;23796;51.458;7.000;2024-02-21T02:20:35;16.85;;;8.60;;
37973;SDS011;23796;51.458;7.000;2024-02-21T02:23:04;14.85;;;7.85;;
37973;SDS011;23796;51.458;7.000;2024-02-21T02:25:37;16.83;;;8.23;;
37973;SDS011;23796;51.458;7.000;2024-02-21T02:28:04;13.73;;;7.95;;
37973;SDS011;23796;51.458;7.000;2024-02-21T02:30:36;13.50;;;7.28;;
37973;SDS011;23796;51.458;7.000;2024-02-21T02:33:03;15.07;;;7.07;;
37973;SDS011;23796;51.458;7.000;2024-02-21T02:35:29;16.17;;;7.78;;
37973;SDS011;23796;51.458;7.000;2024-02-21T02:37:57;16.10;;;8.15;;
37973;SDS011;23796;51.458;7.000;2024-02-21T02:40:23;14.07;;;7.82;;
37973;SDS011;23796;51.458;7.000;2024-02-21T02:42:50;16.50;;;7.78;;
37973;SDS011;23796;51.458;7.000;2024-02-21T02:45:16;15.60;;;6.78;;
37973;SDS011;23796;51.458;7.000;2024-02-21T02:47:42;13.27;;;7.90;;
37973;SDS011;23796;51.458;7.000;2024-02-21T02:50:11;15.85;;;8.25;;
37973;SDS011;23796;51.458;7.000;2024-02-21T02:52:37;21.23;;;8.15;;
37973;SDS011;23796;51.458;7.000;2024-02-21T02:55:03;12.68;;;7.47;;
37973;SDS011;23796;51.458;7.000;2024-02-21T02:57:29;13.68;;;7.43;;
37973;SDS011;23796;51.458;7.000;2024-02-21T02:59:55;15.27;;;7.00;;
37973;SDS011;23796;51.458;7.000;2024-02-21T03:02:20;13.35;;;7.10;;
37973;SDS011;23796;51.458;7.000;2024-02-21T03:04:46;12.13;;;6.60;;
37973;SDS011;23796;51.458;7.000;2024-02-21T03:07:11;13.82;;;7.00;;
37973;SDS011;23796;51.458;7.000;2024-02-21T03:09:39;14.13;;;7.25;;
37973;SDS011;23796;51.458;7.000;2024-02-21T03:12:08;13.93;;;6.88;;
37973;SDS011;23796;51.458;7.000;2024-02-21T03:14:34;13.88;;;7.32;;
37973;SDS011;23796;51.458;7.000;2024-02-21T03:17:00;17.75;;;8.23;;
37973;SDS011;23796;51.458;7.000;2024-02-21T03:19:26;15.32;;;6.97;;
37973;SDS011;23796;51.458;7.000;2024-02-21T03:21:51;12.60;;;7.10;;
37973;SDS011;23796;51.458;7.000;2024-02-21T03:24:21;13.07;;;7.72;;
37973;SDS011;23796;51.458;7.000;2024-02-21T03:26:47;16.27;;;7.20;;
37973;SDS011;23796;51.458;7.000;2024-02-21T03:29:15;14.63;;;7.35;;
37973;SDS011;23796;51.458;7.000;2024-02-21T03:31:41;16.15;;;7.30;;
37973;SDS011;23796;51.458;7.000;2024-02-21T03:34:07;16.15;;;7.63;;
37973;SDS011;23796;51.458;7.000;2024-02-21T03:36:35;14.98;;;7.22;;
37973;SDS011;23796;51.458;7.000;2024-02-21T03:39:00;14.20;;;7.47;;
37973;SDS011;23796;51.458;7.000;2024-02-21T03:41:26;16.08;;;6.97;;
37973;SDS011;23796;51.458;7.000;2024-02-21T03:43:52;13.98;;;6.50;;
37973;SDS011;23796;51.458;7.000;2024-02-21T03:46:23;11.45;;;6.10;;
37973;SDS011;23796;51.458;7.000;2024-02-21T03:48:49;12.98;;;7.30;;
37973;SDS011;23796;51.458;7.000;2024-02-21T03:51:15;13.00;;;6.93;;
37973;SDS011;23796;51.458;7.000;2024-02-21T03:53:43;13.93;;;6.90;;
37973;SDS011;23796;51.458;7.000;2024-02-21T03:56:08;13.02;;;6.40;;
37973;SDS011;23796;51.458;7.000;2024-02-21T03:58:36;12.48;;;6.55;;
37973;SDS011;23796;51.458;7.000;2024-02-21T04:01:02;13.82;;;7.07;;
37973;SDS011;23796;51.458;7.000;2024-02-21T04:03:28;13.00;;;6.30;;
37973;SDS011;23796;51.458;7.000;2024-02-21T04:05:55;12.95;;;6.05;;
37973;SDS011;23796;51.458;7.000;2024-02-21T04:08:21;14.30;;;6.78;;
37973;SDS011;23796;51.458;7.000;2024-02-21T04:10:47;11.52;;;6.63;;
37973;SDS011;23796;51.458;7.000;2024-02-21T04:13:13;13.65;;;6.60;;
37973;SDS011;23796;51.458;7.000;2024-02-21T04:15:39;11.80;;;6.63;;
37973;SDS011;23796;51.458;7.000;2024-02-21T04:18:04;11.73;;;6.22;;
37973;SDS011;23796;51.458;7.000;2024-02-21T04:20:30;12.40;;;6.32;;
37973;SDS011;23796;51.458;7.000;2024-02-21T04:22:56;10.60;;;5.55;;
37973;SDS011;23796;51.458;7.000;2024-02-21T04:25:24;13.13;;;6.53;;
37973;SDS011;23796;51.458;7.000;2024-02-21T04:27:52;11.15;;;6.70;;
37973;SDS011;23796;51.458;7.000;2024-02-21T04:30:18;9.98;;;5.68;;
37973;SDS011;23796;51.458;7.000;2024-02-21T04:32:43;10.98;;;5.95;;
37973;SDS011;23796;51.458;7.000;2024-02-21T04:35:11;10.90;;;5.63;;
37973;SDS011;23796;51.458;7.000;2024-02-21T04:37:37;11.32;;;5.65;;
37973;SDS011;23796;51.458;7.000;2024-02-21T04:40:03;12.80;;;5.78;;
37973;SDS011;23796;51.458;7.000;2024-02-21T04:42:28;11.65;;;6.45;;
37973;SDS011;23796;51.458;7.000;2024-02-21T04:44:54;12.25;;;6.45;;
37973;SDS011;23796;51.458;7.000;2024-02-21T04:47:20;12.52;;;6.43;;
37973;SDS011;23796;51.458;7.000;2024-02-21T04:49:45;10.98;;;6.60;;
37973;SDS011;23796;51.458;7.000;2024-02-21T04:52:11;13.15;;;5.88;;
37973;SDS011;23796;51.458;7.000;2024-02-21T04:54:37;12.25;;;6.38;;
37973;SDS011;23796;51.458;7.000;2024-02-21T04:57:03;12.77;;;5.32;;
37973;SDS011;23796;51.458;7.000;2024-02-21T04:59:29;13.70;;;5.75;;
37973;SDS011;23796;51.458;7.000;2024-02-21T05:01:55;10.57;;;5.50;;
37973;SDS011;23796;51.458;7.000;2024-02-21T05:04:20;11.48;;;5.50;;
37973;SDS011;23796;51.458;7.000;2024-02-21T05:06:46;11.00;;;5.53;;
37973;SDS011;23796;51.458;7.000;2024-02-21T05:09:11;10.85;;;5.43;;
37973;SDS011;23796;51.458;7.000;2024-02-21T05:11:37;11.38;;;5.75;;
37973;SDS011;23796;51.458;7.000;2024-02-21T05:14:03;9.18;;;5.10;;
37973;SDS011;23796;51.458;7.000;2024-02-21T05:16:29;10.25;;;4.93;;
37973;SDS011;23796;51.458;7.000;2024-02-21T05:18:56;11.35;;;5.32;;
37973;SDS011;23796;51.458;7.000;2024-02-21T05:21:25;9.65;;;4.57;;
37973;SDS011;23796;51.458;7.000;2024-02-21T05:23:52;10.32;;;5.00;;
37973;SDS011;23796;51.458;7.000;2024-02-21T05:26:20;9.80;;;4.97;;
37973;SDS011;23796;51.458;7.000;2024-02-21T05:28:49;10.30;;;5.22;;
37973;SDS011;23796;51.458;7.000;2024-02-21T05:31:18;10.15;;;5.20;;
37973;SDS011;23796;51.458;7.000;2024-02-21T05:33:44;10.93;;;5.15;;
37973;SDS011;23796;51.458;7.000;2024-02-21T05:36:10;10.07;;;4.85;;
37973;SDS011;23796;51.458;7.000;2024-02-21T05:38:39;10.45;;;5.18;;
37973;SDS011;23796;51.458;7.000;2024-02-21T05:41:05;9.60;;;4.82;;
37973;SDS011;23796;51.458;7.000;2024-02-21T05:43:30;10.73;;;4.22;;
37973;SDS011;23796;51.458;7.000;2024-02-21T05:45:56;10.68;;;4.28;;
37973;SDS011;23796;51.458;7.000;2024-02-21T05:48:24;12.98;;;5.57;;
37973;SDS011;23796;51.458;7.000;2024-02-21T05:50:53;10.18;;;4.68;;
37973;SDS011;23796;51.458;7.000;2024-02-21T05:53:18;11.25;;;4.75;;
37973;SDS011;23796;51.458;7.000;2024-02-21T05:55:44;13.10;;;4.63;;
37973;SDS011;23796;51.458;7.000;2024-02-21T05:58:09;9.88;;;4.57;;
37973;SDS011;23796;51.458;7.000;2024-02-21T06:00:38;10.55;;;4.63;;
37973;SDS011;23796;51.458;7.000;2024-02-21T06:03:04;11.68;;;4.60;;
37973;SDS011;23796;51.458;7.000;2024-02-21T06:05:30;8.30;;;4.25;;
37973;SDS011;23796;51.458;7.000;2024-02-21T06:07:56;9.30;;;3.95;;
37973;SDS011;23796;51.458;7.000;2024-02-21T06:10:22;8.55;;;4.00;;
37973;SDS011;23796;51.458;7.000;2024-02-21T06:12:48;8.85;;;4.38;;
37973;SDS011;23796;51.458;7.000;2024-02-21T06:15:13;6.65;;;3.95;;
37973;SDS011;23796;51.458;7.000;2024-02-21T06:17:39;10.30;;;4.20;;
37973;SDS011;23796;51.458;7.000;2024-02-21T06:20:05;10.93;;;4.38;;
37973;SDS011;23796;51.458;7.000;2024-02-21T06:22:30;9.77;;;3.80;;
37973;SDS011;23796;51.458;7.000;2024-02-21T06:24:56;11.40;;;4.60;;
37973;SDS011;23796;51.458;7.000;2024-02-21T06:27:22;11.50;;;6.10;;
37973;SDS011;23796;51.458;7.000;2024-02-21T06:29:49;7.72;;;3.97;;
37973;SDS011;23796;51.458;7.000;2024-02-21T06:32:15;11.82;;;4.80;;
37973;SDS011;23796;51.458;7.000;2024-02-21T06:34:40;8.30;;;3.55;;
37973;SDS011;23796;51.458;7.000;2024-02-21T06:37:08;8.82;;;3.65;;
37973;SDS011;23796;51.458;7.000;2024-02-21T06:39:34;9.45;;;4.28;;
37973;SDS011;23796;51.458;7.000;2024-02-21T06:42:02;8.88;;;4.15;;
37973;SDS011;23796;51.458;7.000;2024-02-21T06:44:28;10.40;;;4.28;;
37973;SDS011;23796;51.458;7.000;2024-02-21T06:46:53;10.55;;;5.05;;
37973;SDS011;23796;51.458;7.000;2024-02-21T06:49:19;7.60;;;3.92;;
37973;SDS011;23796;51.458;7.000;2024-02-21T06:51:45;8.85;;;4.22;;
37973;SDS011;23796;51.458;7.000;2024-02-21T06:54:13;10.50;;;4.55;;
37973;SDS011;23796;51.458;7.000;2024-02-21T06:56:39;10.93;;;4.55;;
37973;SDS011;23796;51.458;7.000;2024-02-21T06:59:05;9.45;;;4.13;;
37973;SDS011;23796;51.458;7.000;2024-02-21T07:01:30;9.65;;;4.07;;
37973;SDS011;23796;51.458;7.000;2024-02-21T07:03:56;7.95;;;4.00;;
37973;SDS011;23796;51.458;7.000;2024-02-21T07:06:25;10.02;;;3.90;;
37973;SDS011;23796;51.458;7.000;2024-02-21T07:08:50;8.82;;;3.88;;
37973;SDS011;23796;51.458;7.000;2024-02-21T07:11:16;9.68;;;3.60;;
37973;SDS011;23796;51.458;7.000;2024-02-21T07:13:42;11.75;;;4.22;;
37973;SDS011;23796;51.458;7.000;2024-02-21T07:16:10;10.05;;;4.30;;
37973;SDS011;23796;51.458;7.000;2024-02-21T07:18:38;7.78;;;4.47;;
37973;SDS011;23796;51.458;7.000;2024-02-21T07:21:03;7.63;;;3.53;;
37973;SDS011;23796;51.458;7.000;2024-02-21T07:23:29;11.45;;;4.70;;
37973;SDS011;23796;51.458;7.000;2024-02-21T07:25:54;8.75;;;3.75;;
37973;SDS011;23796;51.458;7.000;2024-02-21T07:28:20;8.63;;;3.63;;
37973;SDS011;23796;51.458;7.000;2024-02-21T07:30:46;7.93;;;3.92;;
37973;SDS011;23796;51.458;7.000;2024-02-21T07:33:11;9.77;;;4.60;;
37973;SDS011;23796;51.458;7.000;2024-02-21T07:35:37;9.82;;;3.83;;
37973;SDS011;23796;51.458;7.000;2024-02-21T07:38:03;9.75;;;3.70;;
37973;SDS011;23796;51.458;7.000;2024-02-21T07:40:32;7.85;;;4.15;;
37973;SDS011;23796;51.458;7.000;2024-02-21T07:42:57;8.25;;;4.03;;
37973;SDS011;23796;51.458;7.000;2024-02-21T07:45:23;8.32;;;4.18;;
37973;SDS011;23796;51.458;7.000;2024-02-21T07:47:51;8.68;;;3.88;;
37973;SDS011;23796;51.458;7.000;2024-02-21T07:50:17;11.65;;;4.47;;
37973;SDS011;23796;51.458;7.000;2024-02-21T07:52:43;8.98;;;3.78;;
37973;SDS011;23796;51.458;7.000;2024-02-21T07:55:08;10.07;;;3.67;;
37973;SDS011;23796;51.458;7.000;2024-02-21T07:57:36;9.70;;;3.95;;
37973;SDS011;23796;51.458;7.000;2024-02-21T08:00:02;7.32;;;3.38;;
37973;SDS011;23796;51.458;7.000;2024-02-21T08:02:36;5.97;;;3.30;;
37973;SDS011;23796;51.458;7.000;2024-02-21T08:05:02;9.00;;;3.83;;
37973;SDS011;23796;51.458;7.000;2024-02-21T08:07:30;11.60;;;3.90;;
37973;SDS011;23796;51.458;7.000;2024-02-21T08:09:56;8.90;;;3.53;;
37973;SDS011;23796;51.458;7.000;2024-02-21T08:12:22;6.72;;;3.38;;
37973;SDS011;23796;51.458;7.000;2024-02-21T08:14:47;8.32;;;3.58;;
37973;SDS011;23796;51.458;7.000;2024-02-21T08:17:13;8.10;;;3.50;;
37973;SDS011;23796;51.458;7.000;2024-02-21T08:19:38;8.88;;;3.80;;
37973;SDS011;23796;51.458;7.000;2024-02-21T08:22:04;9.05;;;3.45;;
37973;SDS011;23796;51.458;7.000;2024-02-21T08:24:32;6.32;;;2.60;;
37973;SDS011;23796;51.458;7.000;2024-02-21T08:26:57;6.78;;;3.05;;
37973;SDS011;23796;51.458;7.000;2024-02-21T08:29:23;8.13;;;3.30;;
37973;SDS011;23796;51.458;7.000;2024-02-21T08:31:48;9.05;;;3.00;;
37973;SDS011;23796;51.458;7.000;2024-02-21T08:34:14;9.75;;;3.58;;
37973;SDS011;23796;51.458;7.000;2024-02-21T08:36:40;10.02;;;3.67;;
37973;SDS011;23796;51.458;7.000;2024-02-21T08:39:05;8.18;;;3.28;;
37973;SDS011;23796;51.458;7.000;2024-02-21T08:41:31;7.55;;;3.08;;
37973;SDS011;23796;51.458;7.000;2024-02-21T08:43:57;7.30;;;3.60;;
37973;SDS011;23796;51.458;7.000;2024-02-21T08:46:25;8.70;;;3.92;;
37973;SDS011;23796;51.458;7.000;2024-02-21T08:48:52;9.48;;;3.45;;
37973;SDS011;23796;51.458;7.000;2024-02-21T08:51:18;11.18;;;3.75;;
37973;SDS011;23796;51.458;7.000;2024-02-21T08:53:45;8.00;;;3.13;;
37973;SDS011;23796;51.458;7.000;2024-02-21T08:56:11;12.10;;;3.28;;
37973;SDS011;23796;51.458;7.000;2024-02-21T08:58:36;9.77;;;3.63;;
37973;SDS011;23796;51.458;7.000;2024-02-21T09:01:03;9.52;;;3.30;;
37973;SDS011;23796;51.458;7.000;2024-02-21T09:03:33;7.32;;;3.72;;
37973;SDS011;23796;51.458;7.000;2024-02-21T09:05:59;9.30;;;3.58;;
37973;SDS011;23796;51.458;7.000;2024-02-21T09:08:27;9.55;;;3.75;;
37973;SDS011;23796;51.458;7.000;2024-02-21T09:10:53;8.38;;;3.58;;
37973;SDS011;23796;51.458;7.000;2024-02-21T09:13:21;8.20;;;3.70;;
37973;SDS011;23796;51.458;7.000;2024-02-21T09:15:47;8.50;;;3.50;;
37973;SDS011;23796;51.458;7.000;2024-02-21T09:18:13;7.70;;;3.25;;
37973;SDS011;23796;51.458;7.000;2024-02-21T09:20:39;9.02;;;3.38;;
37973;SDS011;23796;51.458;7.000;2024-02-21T09:23:05;7.25;;;2.88;;
37973;SDS011;23796;51.458;7.000;2024-02-21T09:25:31;7.60;;;3.13;;
37973;SDS011;23796;51.458;7.000;2024-02-21T09:27:56;7.82;;;3.10;;
37973;SDS011;23796;51.458;7.000;2024-02-21T09:30:23;9.73;;;3.08;;
37973;SDS011;23796;51.458;7.000;2024-02-21T09:32:54;6.72;;;2.90;;
37973;SDS011;23796;51.458;7.000;2024-02-21T09:35:19;9.02;;;2.60;;
37973;SDS011;23796;51.458;7.000;2024-02-21T09:37:48;7.47;;;2.97;;
37973;SDS011;23796;51.458;7.000;2024-02-21T09:40:15;7.43;;;3.25;;
37973;SDS011;23796;51.458;7.000;2024-02-21T09:42:42;7.40;;;2.92;;
37973;SDS011;23796;51.458;7.000;2024-02-21T09:45:13;10.35;;;3.17;;
37973;SDS011;23796;51.458;7.000;2024-02-21T09:50:31;8.43;;;3.45;;
37973;SDS011;23796;51.458;7.000;2024-02-21T09:53:01;6.25;;;2.47;;
37973;SDS011;23796;51.458;7.000;2024-02-21T09:55:27;7.15;;;3.20;;
37973;SDS011;23796;51.458;7.000;2024-02-21T09:57:54;5.70;;;2.65;;
37973;SDS011;23796;51.458;7.000;2024-02-21T10:00:22;7.72;;;2.97;;
37973;SDS011;23796;51.458;7.000;2024-02-21T10:02:50;8.85;;;3.67;;
37973;SDS011;23796;51.458;7.000;2024-02-21T10:05:16;10.50;;;3.30;;
37973;SDS011;23796;51.458;7.000;2024-02-21T10:07:42;7.50;;;3.20;;
37973;SDS011;23796;51.458;7.000;2024-02-21T10:10:11;6.68;;;2.90;;
37973;SDS011;23796;51.458;7.000;2024-02-21T10:12:36;6.78;;;3.05;;
37973;SDS011;23796;51.458;7.000;2024-02-21T10:15:19;7.43;;;2.88;;
37973;SDS011;23796;51.458;7.000;2024-02-21T10:17:49;7.03;;;3.08;;
37973;SDS011;23796;51.458;7.000;2024-02-21T10:20:25;8.15;;;3.38;;
37973;SDS011;23796;51.458;7.000;2024-02-21T10:23:00;9.32;;;4.15;;
37973;SDS011;23796;51.458;7.000;2024-02-21T10:25:33;9.23;;;4.20;;
37973;SDS011;23796;51.458;7.000;2024-02-21T10:27:59;6.75;;;2.95;;
37973;SDS011;23796;51.458;7.000;2024-02-21T10:30:25;7.72;;;3.45;;
37973;SDS011;23796;51.458;7.000;2024-02-21T10:32:50;6.72;;;2.92;;
37973;SDS011;23796;51.458;7.000;2024-02-21T10:35:25;9.35;;;3.78;;
37973;SDS011;23796;51.458;7.000;2024-02-21T10:37:58;8.02;;;3.65;;
37973;SDS011;23796;51.458;7.000;2024-02-21T10:40:28;7.63;;;3.40;;
37973;SDS011;23796;51.458;7.000;2024-02-21T10:42:58;9.88;;;3.72;;
37973;SDS011;23796;51.458;7.000;2024-02-21T10:45:32;9.15;;;2.50;;
37973;SDS011;23796;51.458;7.000;2024-02-21T10:48:03;6.57;;;2.88;;
37973;SDS011;23796;51.458;7.000;2024-02-21T10:58:46;5.70;;;2.53;;
37973;SDS011;23796;51.458;7.000;2024-02-21T11:01:13;5.30;;;2.40;;
37973;SDS011;23796;51.458;7.000;2024-02-21T11:03:41;7.03;;;3.17;;
37973;SDS011;23796;51.458;7.000;2024-02-21T11:06:09;7.80;;;2.45;;
37973;SDS011;23796;51.458;7.000;2024-02-21T11:08:36;6.68;;;2.28;;
37973;SDS011;23796;51.458;7.000;2024-02-21T11:11:01;7.90;;;2.50;;
37973;SDS011;23796;51.458;7.000;2024-02-21T11:13:34;5.78;;;2.38;;
37973;SDS011;23796;51.458;7.000;2024-02-21T11:16:10;5.50;;;2.25;;
37973;SDS011;23796;51.458;7.000;2024-02-21T11:18:39;8.65;;;2.60;;
37973;SDS011;23796;51.458;7.000;2024-02-21T11:21:04;7.28;;;2.80;;
37973;SDS011;23796;51.458;7.000;2024-02-21T11:23:30;6.90;;;2.35;;
37973;SDS011;23796;51.458;7.000;2024-02-21T11:28:32;5.28;;;2.13;;
37973;SDS011;23796;51.458;7.000;2024-02-21T11:31:13;7.35;;;2.58;;
37973;SDS011;23796;51.458;7.000;2024-02-21T11:33:39;5.75;;;2.25;;
37973;SDS011;23796;51.458;7.000;2024-02-21T11:36:08;7.13;;;2.50;;
37973;SDS011;23796;51.458;7.000;2024-02-21T11:38:34;7.90;;;2.70;;
37973;SDS011;23796;51.458;7.000;2024-02-21T11:41:03;6.72;;;2.70;;
37973;SDS011;23796;51.458;7.000;2024-02-21T11:43:34;6.75;;;3.28;;
37973;SDS011;23796;51.458;7.000;2024-02-21T11:46:00;6.43;;;2.70;;
37973;SDS011;23796;51.458;7.000;2024-02-21T11:48:26;7.63;;;3.22;;
37973;SDS011;23796;51.458;7.000;2024-02-21T11:50:55;8.45;;;2.78;;
37973;SDS011;23796;51.458;7.000;2024-02-21T11:53:21;7.47;;;2.97;;
37973;SDS011;23796;51.458;7.000;2024-02-21T11:55:47;5.82;;;2.60;;
37973;SDS011;23796;51.458;7.000;2024-02-21T11:58:14;7.07;;;2.65;;
37973;SDS011;23796;51.458;7.000;2024-02-21T12:00:40;5.60;;;2.20;;
37973;SDS011;23796;51.458;7.000;2024-02-21T12:03:06;7.00;;;2.85;;
37973;SDS011;23796;51.458;7.000;2024-02-21T12:05:32;6.72;;;2.60;;
37973;SDS011;23796;51.458;7.000;2024-02-21T12:07:58;6.10;;;2.42;;
37973;SDS011;23796;51.458;7.000;2024-02-21T12:10:25;8.25;;;3.20;;
37973;SDS011;23796;51.458;7.000;2024-02-21T12:12:52;6.85;;;3.42;;
37973;SDS011;23796;51.458;7.000;2024-02-21T12:15:19;7.03;;;3.28;;
37973;SDS011;23796;51.458;7.000;2024-02-21T12:17:46;8.55;;;2.72;;
37973;SDS011;23796;51.458;7.000;2024-02-21T12:20:11;7.28;;;3.00;;
37973;SDS011;23796;51.458;7.000;2024-02-21T12:22:37;8.18;;;3.15;;
37973;SDS011;23796;51.458;7.000;2024-02-21T12:25:04;6.53;;;3.65;;
37973;SDS011;23796;51.458;7.000;2024-02-21T12:27:40;6.70;;;2.50;;
37973;SDS011;23796;51.458;7.000;2024-02-21T12:30:06;7.90;;;3.08;;
37973;SDS011;23796;51.458;7.000;2024-02-21T12:32:35;6.85;;;2.63;;
37973;SDS011;23796;51.458;7.000;2024-02-21T12:35:01;6.93;;;2.65;;
37973;SDS011;23796;51.458;7.000;2024-02-21T12:37:27;6.20;;;2.30;;
37973;SDS011;23796;51.458;7.000;2024-02-21T12:39:53;9.05;;;2.60;;
37973;SDS011;23796;51.458;7.000;2024-02-21T12:42:18;6.93;;;2.55;;
37973;SDS011;23796;51.458;7.000;2024-02-21T12:44:44;6.55;;;2.70;;
37973;SDS011;23796;51.458;7.000;2024-02-21T12:47:12;8.60;;;2.60;;
37973;SDS011;23796;51.458;7.000;2024-02-21T12:49:38;10.20;;;3.00;;
37973;SDS011;23796;51.458;7.000;2024-02-21T12:52:06;7.30;;;2.75;;
37973;SDS011;23796;51.458;7.000;2024-02-21T12:54:34;5.15;;;2.42;;
37973;SDS011;23796;51.458;7.000;2024-02-21T12:56:59;6.35;;;2.10;;
37973;SDS011;23796;51.458;7.000;2024-02-21T12:59:28;9.85;;;2.58;;
37973;SDS011;23796;51.458;7.000;2024-02-21T13:01:54;7.40;;;2.17;;
37973;SDS011;23796;51.458;7.000;2024-02-21T13:04:19;8.20;;;2.53;;
37973;SDS011;23796;51.458;7.000;2024-02-21T13:06:47;8.60;;;2.50;;
37973;SDS011;23796;51.458;7.000;2024-02-21T13:09:14;6.22;;;2.25;;
37973;SDS011;23796;51.458;7.000;2024-02-21T13:11:39;9.15;;;2.50;;
37973;SDS011;23796;51.458;7.000;2024-02-21T13:14:06;7.07;;;2.15;;
37973;SDS011;23796;51.458;7.000;2024-02-21T13:16:31;5.88;;;2.05;;
37973;SDS011;23796;51.458;7.000;2024-02-21T13:18:59;6.90;;;2.30;;
37973;SDS011;23796;51.458;7.000;2024-02-21T13:21:25;7.50;;;2.42;;
37973;SDS011;23796;51.458;7.000;2024-02-21T13:23:50;7.30;;;2.22;;
37973;SDS011;23796;51.458;7.000;2024-02-21T13:26:16;7.15;;;2.40;;
37973;SDS011;23796;51.458;7.000;2024-02-21T13:28:42;6.13;;;2.25;;
37973;SDS011;23796;51.458;7.000;2024-02-21T13:31:09;6.43;;;1.50;;
37973;SDS011;23796;51.458;7.000;2024-02-21T13:33:35;6.28;;;2.40;;
37973;SDS011;23796;51.458;7.000;2024-02-21T13:36:01;7.38;;;2.10;;
37973;SDS011;23796;51.458;7.000;2024-02-21T13:38:28;9.07;;;2.90;;
37973;SDS011;23796;51.458;7.000;2024-02-21T13:40:54;6.88;;;1.98;;
37973;SDS011;23796;51.458;7.000;2024-02-21T13:43:19;5.68;;;1.85;;
37973;SDS011;23796;51.458;7.000;2024-02-21T13:45:58;5.25;;;1.73;;
37973;SDS011;23796;51.458;7.000;2024-02-21T13:48:24;7.60;;;2.20;;
37973;SDS011;23796;51.458;7.000;2024-02-21T13:50:53;6.45;;;2.47;;
37973;SDS011;23796;51.458;7.000;2024-02-21T13:53:19;7.57;;;2.60;;
37973;SDS011;23796;51.458;7.000;2024-02-21T13:55:45;8.18;;;1.98;;
37973;SDS011;23796;51.458;7.000;2024-02-21T13:58:11;6.82;;;2.20;;
37973;SDS011;23796;51.458;7.000;2024-02-21T14:00:36;6.43;;;1.77;;
37973;SDS011;23796;51.458;7.000;2024-02-21T14:03:02;7.65;;;2.22;;
37973;SDS011;23796;51.458;7.000;2024-02-21T14:05:28;10.20;;;2.28;;
37973;SDS011;23796;51.458;7.000;2024-02-21T14:07:54;6.13;;;2.03;;
37973;SDS011;23796;51.458;7.000;2024-02-21T14:10:24;7.60;;;2.50;;
37973;SDS011;23796;51.458;7.000;2024-02-21T14:12:50;6.15;;;1.95;;
37973;SDS011;23796;51.458;7.000;2024-02-21T14:15:15;7.32;;;2.17;;
37973;SDS011;23796;51.458;7.000;2024-02-21T14:17:41;5.38;;;1.80;;
37973;SDS011;23796;51.458;7.000;2024-02-21T14:20:07;6.85;;;1.98;;
37973;SDS011;23796;51.458;7.000;2024-02-21T14:22:33;6.47;;;1.92;;
37973;SDS011;23796;51.458;7.000;2024-02-21T14:25:02;6.22;;;1.95;;
37973;SDS011;23796;51.458;7.000;2024-02-21T14:27:30;7.38;;;2.88;;
37973;SDS011;23796;51.458;7.000;2024-02-21T14:29:56;5.97;;;2.05;;
37973;SDS011;23796;51.458;7.000;2024-02-21T14:32:22;7.13;;;2.53;;
37973;SDS011;23796;51.458;7.000;2024-02-21T14:34:47;7.53;;;2.30;;
37973;SDS011;23796;51.458;7.000;2024-02-21T14:37:14;6.50;;;2.08;;
37973;SDS011;23796;51.458;7.000;2024-02-21T14:39:39;6.78;;;2.05;;
37973;SDS011;23796;51.458;7.000;2024-02-21T14:42:06;6.97;;;2.30;;
37973;SDS011;23796;51.458;7.000;2024-02-21T14:44:32;6.75;;;2.00;;
37973;SDS011;23796;51.458;7.000;2024-02-21T14:46:57;5.93;;;1.92;;
37973;SDS011;23796;51.458;7.000;2024-02-21T14:49:23;6.15;;;2.15;;
37973;SDS011;23796;51.458;7.000;2024-02-21T14:51:50;7.18;;;1.90;;
37973;SDS011;23796;51.458;7.000;2024-02-21T14:54:16;7.30;;;2.15;;